Time;durP1;ratioP1;P1;durP2;ratioP2;P2;SDS_P1;SDS_P2;PMS_P1;PMS_P2;Temp;Humidity;BMP_temperature;BMP_pressure;BME280_temperature;BME280_humidity;BME280_pressure;Samples;Min_cycle;Max_cycle;Signal;HPM_P1;HPM_P2
2022/11/12 00:02:44;;;;;;;34.70;13.83;;;;;;;;;;5028132;28;20650;-78
2022/11/12 00:05:29;;;;;;;39.17;14.47;;;;;;;;;;5025906;28;20208;-79
2022/11/12 00:08:14;;;;;;;17.03;11.77;;;;;;;;;;5023124;28;20822;-80
2022/11/12 00:10:59;;;;;;;27.97;13.70;;;;;;;;;;5028843;28;20238;-81
2022/11/12 00:13:44;;;;;;;23.43;12.87;;;;;;;;;;5025851;28;20236;-78
2022/11/12 00:16:29;;;;;;;28.60;13.43;;;;;;;;;;5027812;28;20848;-78
2022/11/12 00:19:14;;;;;;;25.43;12.10;;;;;;;;;;5015212;28;20261;-79
2022/11/12 00:21:59;;;;;;;25.23;12.87;;;;;;;;;;5029341;28;20269;-79
2022/11/12 00:24:44;;;;;;;28.50;11.87;;;;;;;;;;5017841;28;20215;-79
2022/11/12 00:27:29;;;;;;;18.90;11.90;;;;;;;;;;5028214;28;20209;-79
2022/11/12 00:30:14;;;;;;;20.73;10.57;;;;;;;;;;5026840;28;20269;-78
2022/11/12 00:33:02;;;;;;;18.47;11.50;;;;;;;;;;5034529;28;20178;-78
2022/11/12 00:35:47;;;;;;;21.43;11.50;;;;;;;;;;5027889;28;20198;-78
2022/11/12 00:38:32;;;;;;;23.67;11.60;;;;;;;;;;5021792;28;20197;-79
2022/11/12 00:41:17;;;;;;;20.73;11.27;;;;;;;;;;5033246;28;20189;-78
2022/11/12 00:44:02;;;;;;;19.80;11.13;;;;;;;;;;5027058;28;20669;-78
2022/11/12 00:46:47;;;;;;;15.60;9.77;;;;;;;;;;5026019;28;20218;-78
2022/11/12 00:49:32;;;;;;;13.13;10.10;;;;;;;;;;5022734;28;20190;-79
2022/11/12 00:52:17;;;;;;;20.30;10.40;;;;;;;;;;5038867;28;20175;-79
2022/11/12 00:55:02;;;;;;;15.57;10.07;;;;;;;;;;5009667;28;20242;-78
2022/11/12 00:57:47;;;;;;;23.33;9.53;;;;;;;;;;5016989;28;20179;-79
2022/11/12 01:00:32;;;;;;;21.20;10.63;;;;;;;;;;5022522;28;20217;-79
2022/11/12 01:03:16;;;;;;;13.50;10.27;;;;;;;;;;5020625;28;20186;-79
2022/11/12 01:06:02;;;;;;;17.27;9.23;;;;;;;;;;5025810;28;20693;-79
2022/11/12 01:08:48;;;;;;;14.93;9.23;;;;;;;;;;5027792;28;20182;-78
2022/11/12 01:11:32;;;;;;;12.17;9.20;;;;;;;;;;5022601;28;20864;-79
2022/11/12 01:14:17;;;;;;;16.33;9.30;;;;;;;;;;5021368;28;20218;-79
2022/11/12 01:17:02;;;;;;;12.60;9.00;;;;;;;;;;5020047;28;20210;-79
2022/11/12 01:19:47;;;;;;;10.03;7.70;;;;;;;;;;5027277;28;20357;-79
2022/11/12 01:22:32;;;;;;;18.13;9.10;;;;;;;;;;5025818;28;20206;-79
2022/11/12 01:25:17;;;;;;;11.43;8.03;;;;;;;;;;5020331;28;20228;-79
2022/11/12 01:28:02;;;;;;;12.17;8.83;;;;;;;;;;5012606;28;20256;-79
2022/11/12 01:30:46;;;;;;;11.53;8.13;;;;;;;;;;5025788;28;20776;-79
2022/11/12 01:33:31;;;;;;;16.90;9.30;;;;;;;;;;5031728;28;20181;-79
2022/11/12 01:36:17;;;;;;;14.70;7.87;;;;;;;;;;5037624;28;20575;-79
2022/11/12 01:39:03;;;;;;;10.83;7.80;;;;;;;;;;5026838;28;20182;-79
2022/11/12 01:41:47;;;;;;;16.23;9.17;;;;;;;;;;5025817;28;20182;-79
2022/11/12 01:44:34;;;;;;;16.47;7.97;;;;;;;;;;5027537;28;20639;-78
2022/11/12 01:47:19;;;;;;;18.80;8.77;;;;;;;;;;5022152;28;20291;-78
2022/11/12 01:50:12;;;;;;;16.03;8.10;;;;;;;;;;5015586;28;20297;-78
2022/11/12 01:53:02;;;;;;;12.97;7.90;;;;;;;;;;5018908;28;20257;-79
2022/11/12 01:55:47;;;;;;;10.97;7.53;;;;;;;;;;5026424;28;20206;-79
2022/11/12 01:58:33;;;;;;;10.77;7.50;;;;;;;;;;5011809;28;20162;-79
2022/11/12 02:01:18;;;;;;;10.77;7.80;;;;;;;;;;5027611;28;20252;-78
2022/11/12 02:04:03;;;;;;;16.87;8.37;;;;;;;;;;5027166;28;20175;-79
2022/11/12 02:06:48;;;;;;;14.80;8.00;;;;;;;;;;5024922;28;20211;-78
2022/11/12 02:09:34;;;;;;;12.97;6.93;;;;;;;;;;5032723;28;20225;-78
2022/11/12 02:15:23;;;;;;;10.87;7.70;;;;;;;;;;5019864;28;20240;-79
2022/11/12 02:18:08;;;;;;;9.60;7.20;;;;;;;;;;5030876;28;20163;-79
2022/11/12 02:20:55;;;;;;;12.00;7.80;;;;;;;;;;5023409;28;20187;-78
2022/11/12 02:23:40;;;;;;;11.30;7.77;;;;;;;;;;5023256;28;20189;-78
2022/11/12 02:26:25;;;;;;;12.57;8.07;;;;;;;;;;5028039;28;20211;-79
2022/11/12 02:29:10;;;;;;;12.07;8.17;;;;;;;;;;5030739;28;20187;-79
2022/11/12 02:31:56;;;;;;;15.13;8.47;;;;;;;;;;5020352;28;20183;-78
2022/11/12 02:34:41;;;;;;;10.00;7.60;;;;;;;;;;5022867;28;20182;-78
2022/11/12 02:37:25;;;;;;;12.23;7.33;;;;;;;;;;5027536;28;20225;-78
2022/11/12 02:40:10;;;;;;;13.73;8.47;;;;;;;;;;5015456;28;20187;-78
2022/11/12 02:42:55;;;;;;;12.97;8.13;;;;;;;;;;5032830;28;20201;-78
2022/11/12 02:45:40;;;;;;;15.80;9.17;;;;;;;;;;5046130;28;20450;-79
2022/11/12 02:48:25;;;;;;;16.03;8.10;;;;;;;;;;5019517;28;20175;-78
2022/11/12 02:51:10;;;;;;;31.60;7.77;;;;;;;;;;5027563;28;20261;-78
2022/11/12 02:53:55;;;;;;;9.37;6.97;;;;;;;;;;5026815;28;20167;-79
2022/11/12 02:56:40;;;;;;;9.90;7.17;;;;;;;;;;5023356;28;20213;-78
2022/11/12 02:59:25;;;;;;;10.97;7.63;;;;;;;;;;5022151;28;20196;-79
2022/11/12 03:02:10;;;;;;;9.30;6.80;;;;;;;;;;5025598;28;20194;-79
2022/11/12 03:04:54;;;;;;;9.63;6.53;;;;;;;;;;5041143;28;20272;-79
2022/11/12 03:07:40;;;;;;;7.03;6.10;;;;;;;;;;5018604;28;20219;-79
2022/11/12 03:10:25;;;;;;;7.40;6.20;;;;;;;;;;5026016;28;20232;-79
2022/11/12 03:13:10;;;;;;;8.73;6.43;;;;;;;;;;5028548;28;20178;-79
2022/11/12 03:15:59;;;;;;;7.40;6.57;;;;;;;;;;5028227;28;22018;-79
2022/11/12 03:18:44;;;;;;;6.27;5.67;;;;;;;;;;5015000;28;20595;-79
2022/11/12 03:21:29;;;;;;;8.70;6.73;;;;;;;;;;5021183;28;20198;-79
2022/11/12 03:24:13;;;;;;;7.13;6.00;;;;;;;;;;5027491;28;20189;-79
2022/11/12 03:26:58;;;;;;;7.10;5.73;;;;;;;;;;5034072;28;20217;-79
2022/11/12 03:29:43;;;;;;;7.43;5.97;;;;;;;;;;5029209;28;20197;-79
2022/11/12 03:32:28;;;;;;;7.53;5.73;;;;;;;;;;5027954;28;20265;-79
2022/11/12 03:35:13;;;;;;;7.07;5.63;;;;;;;;;;5028812;28;20706;-79
2022/11/12 03:37:58;;;;;;;6.37;5.40;;;;;;;;;;5022528;28;20282;-79
2022/11/12 03:40:43;;;;;;;5.93;5.13;;;;;;;;;;5028823;28;20194;-79
2022/11/12 03:43:28;;;;;;;6.67;5.83;;;;;;;;;;5029009;28;20214;-79
2022/11/12 03:46:13;;;;;;;6.03;5.30;;;;;;;;;;5020182;28;20336;-79
2022/11/12 03:48:58;;;;;;;6.57;5.53;;;;;;;;;;5043639;28;20205;-79
2022/11/12 03:51:43;;;;;;;6.60;5.50;;;;;;;;;;5037796;28;20550;-79
2022/11/12 03:54:28;;;;;;;6.30;5.37;;;;;;;;;;5009304;28;20167;-79
2022/11/12 03:57:13;;;;;;;5.60;4.90;;;;;;;;;;5022796;28;20191;-79
2022/11/12 03:59:58;;;;;;;7.30;5.70;;;;;;;;;;5033316;28;20232;-79
2022/11/12 04:02:42;;;;;;;6.67;5.60;;;;;;;;;;5036195;28;20263;-79
2022/11/12 04:08:35;;;;;;;6.60;5.73;;;;;;;;;;5036719;28;20547;-79
2022/11/12 04:11:20;;;;;;;6.77;5.80;;;;;;;;;;5013992;28;20214;-79
2022/11/12 04:14:04;;;;;;;6.20;5.27;;;;;;;;;;5028927;28;20217;-79
2022/11/12 04:22:57;;;;;;;6.67;5.57;;;;;;;;;;5022835;28;20281;-79
2022/11/12 04:31:49;;;;;;;6.37;5.70;;;;;;;;;;5027231;28;20189;-79
2022/11/12 04:34:34;;;;;;;6.20;5.53;;;;;;;;;;5028408;28;20187;-79
2022/11/12 04:37:19;;;;;;;7.57;6.27;;;;;;;;;;5031515;28;20191;-79
2022/11/12 04:44:58;;;;;;;6.60;5.90;;;;;;;;;;5013255;28;20178;-78
2022/11/12 04:46:14;;;;;;;6.43;5.40;;;;;;;;;;5034446;28;20206;-79
2022/11/12 04:48:59;;;;;;;6.70;6.10;;;;;;;;;;5027246;28;20190;-79
2022/11/12 04:54:48;;;;;;;7.10;5.37;;;;;;;;;;5015562;28;20212;-79
2022/11/12 04:57:33;;;;;;;5.90;5.30;;;;;;;;;;5027525;28;20189;-79
2022/11/12 05:00:18;;;;;;;5.93;5.30;;;;;;;;;;5014643;28;20199;-79
2022/11/12 05:03:03;;;;;;;5.97;5.37;;;;;;;;;;5023115;28;20175;-79
2022/11/12 05:05:48;;;;;;;5.70;5.10;;;;;;;;;;5013420;28;20210;-79
2022/11/12 05:08:33;;;;;;;5.07;4.50;;;;;;;;;;5027559;28;20873;-79
2022/11/12 05:11:18;;;;;;;5.83;5.10;;;;;;;;;;5009461;28;20217;-79
2022/11/12 05:14:02;;;;;;;5.23;4.70;;;;;;;;;;5028540;28;20332;-79
2022/11/12 05:16:47;;;;;;;7.00;5.57;;;;;;;;;;5017309;28;20205;-79
2022/11/12 05:19:33;;;;;;;7.67;5.40;;;;;;;;;;5017197;28;20181;-79
2022/11/12 05:22:18;;;;;;;5.70;5.17;;;;;;;;;;5022958;28;20186;-79
2022/11/12 05:25:03;;;;;;;5.57;5.00;;;;;;;;;;5023056;28;20217;-79
2022/11/12 05:27:48;;;;;;;14.80;5.77;;;;;;;;;;5019157;28;20272;-79
2022/11/12 05:30:34;;;;;;;6.60;5.63;;;;;;;;;;5021232;28;20191;-79
2022/11/12 05:33:20;;;;;;;6.60;5.50;;;;;;;;;;5025996;28;20189;-79
2022/11/12 05:36:05;;;;;;;20.17;7.03;;;;;;;;;;5023734;28;20259;-79
2022/11/12 05:38:50;;;;;;;6.77;5.97;;;;;;;;;;5023898;28;20182;-78
2022/11/12 05:41:35;;;;;;;6.23;5.63;;;;;;;;;;5017227;28;20731;-78
2022/11/12 05:44:20;;;;;;;7.10;5.70;;;;;;;;;;5024235;28;20185;-79
2022/11/12 05:47:05;;;;;;;6.50;5.57;;;;;;;;;;5026760;28;20264;-79
2022/11/12 05:49:50;;;;;;;6.83;5.97;;;;;;;;;;5025077;28;20305;-79
2022/11/12 05:52:34;;;;;;;7.63;6.20;;;;;;;;;;5027596;28;20174;-79
2022/11/12 05:55:19;;;;;;;8.10;6.13;;;;;;;;;;5043577;28;20210;-79
2022/11/12 05:58:05;;;;;;;6.60;5.77;;;;;;;;;;5018849;28;20177;-79
2022/11/12 06:00:49;;;;;;;7.53;6.53;;;;;;;;;;5030074;28;20236;-78
2022/11/12 06:03:34;;;;;;;8.67;6.67;;;;;;;;;;5030214;28;20232;-79
2022/11/12 06:06:19;;;;;;;8.13;5.77;;;;;;;;;;5024232;28;20236;-79
2022/11/12 06:09:10;;;;;;;6.67;5.93;;;;;;;;;;5020364;28;20175;-79
2022/11/12 06:11:55;;;;;;;7.70;6.17;;;;;;;;;;5028487;28;20190;-79
2022/11/12 06:14:52;;;;;;;7.53;6.20;;;;;;;;;;5012020;28;20680;-79
2022/11/12 06:17:37;;;;;;;6.67;5.73;;;;;;;;;;5018915;28;20175;-79
2022/11/12 06:20:22;;;;;;;10.90;6.17;;;;;;;;;;5030796;28;20696;-79
2022/11/12 06:23:07;;;;;;;9.00;6.67;;;;;;;;;;5028448;28;20221;-79
2022/11/12 06:25:52;;;;;;;8.93;6.47;;;;;;;;;;5041946;28;20229;-78
2022/11/12 06:28:37;;;;;;;10.63;7.03;;;;;;;;;;5023863;28;20217;-79
2022/11/12 06:31:22;;;;;;;8.07;6.00;;;;;;;;;;5028878;28;20257;-78
2022/11/12 06:34:07;;;;;;;8.13;6.10;;;;;;;;;;5026847;28;20212;-78
2022/11/12 06:36:52;;;;;;;8.37;6.53;;;;;;;;;;5017003;28;20301;-81
2022/11/12 06:39:37;;;;;;;11.77;6.23;;;;;;;;;;5020624;28;20182;-81
2022/11/12 06:42:22;;;;;;;13.07;6.90;;;;;;;;;;5031770;28;20189;-81
2022/11/12 06:45:07;;;;;;;11.17;7.00;;;;;;;;;;5022456;28;20289;-79
2022/11/12 06:47:52;;;;;;;7.40;5.80;;;;;;;;;;5029444;28;20743;-78
2022/11/12 06:50:37;;;;;;;7.47;6.63;;;;;;;;;;5025422;28;20202;-78
2022/11/12 06:53:22;;;;;;;8.43;6.40;;;;;;;;;;5029094;28;20185;-78
2022/11/12 06:56:08;;;;;;;7.20;5.63;;;;;;;;;;5023518;28;20205;-81
2022/11/12 06:58:53;;;;;;;6.97;6.23;;;;;;;;;;5026976;28;20170;-80
2022/11/12 07:01:38;;;;;;;6.53;5.40;;;;;;;;;;5031127;28;20193;-78
2022/11/12 07:04:26;;;;;;;11.13;6.07;;;;;;;;;;5026821;28;20721;-81
2022/11/12 07:07:10;;;;;;;6.50;5.63;;;;;;;;;;5029841;28;20206;-81
2022/11/12 07:09:55;;;;;;;10.10;5.10;;;;;;;;;;5027451;28;20787;-79
2022/11/12 07:12:40;;;;;;;8.80;5.50;;;;;;;;;;5026501;28;20594;-82
2022/11/12 07:15:25;;;;;;;6.47;5.30;;;;;;;;;;5023020;28;20801;-77
2022/11/12 07:18:10;;;;;;;6.87;5.53;;;;;;;;;;5024473;28;20178;-78
2022/11/12 07:21:02;;;;;;;6.47;5.43;;;;;;;;;;5023785;28;20179;-77
2022/11/12 07:23:47;;;;;;;8.63;5.80;;;;;;;;;;5027805;28;20326;-78
2022/11/12 07:26:32;;;;;;;6.33;5.00;;;;;;;;;;5024412;28;20276;-76
2022/11/12 07:29:17;;;;;;;5.10;4.60;;;;;;;;;;5027772;28;20881;-77
2022/11/12 07:32:02;;;;;;;5.50;4.87;;;;;;;;;;5023738;28;20186;-77
2022/11/12 07:34:47;;;;;;;6.57;5.43;;;;;;;;;;5024599;28;20186;-81
2022/11/12 07:37:33;;;;;;;6.37;5.43;;;;;;;;;;5026708;28;20181;-79
2022/11/12 07:40:18;;;;;;;6.03;5.37;;;;;;;;;;5027943;28;20186;-79
2022/11/12 07:43:03;;;;;;;6.27;5.67;;;;;;;;;;5009500;28;20635;-80
2022/11/12 07:45:48;;;;;;;6.07;5.37;;;;;;;;;;5017012;28;20210;-78
2022/11/12 07:48:32;;;;;;;10.00;6.53;;;;;;;;;;5023879;28;20193;-78
2022/11/12 07:51:22;;;;;;;12.17;6.10;;;;;;;;;;5013867;28;20206;-77
2022/11/12 07:54:07;;;;;;;9.37;5.80;;;;;;;;;;5027679;28;20183;-83
2022/11/12 07:56:51;;;;;;;11.63;6.20;;;;;;;;;;5031226;28;20211;-81
2022/11/12 07:59:36;;;;;;;14.27;6.90;;;;;;;;;;5041676;28;20320;-82
2022/11/12 08:02:21;;;;;;;9.87;6.30;;;;;;;;;;5030953;28;20210;-78
2022/11/12 08:05:06;;;;;;;8.33;5.73;;;;;;;;;;5027266;28;20627;-86
2022/11/12 08:07:55;;;;;;;8.20;6.57;;;;;;;;;;5026562;28;20225;-86
2022/11/12 08:10:40;;;;;;;6.90;6.00;;;;;;;;;;5034457;28;20191;-85
2022/11/12 08:13:25;;;;;;;8.77;6.33;;;;;;;;;;5032514;28;20182;-84
2022/11/12 08:16:10;;;;;;;5.90;5.30;;;;;;;;;;5024876;28;20246;-85
2022/11/12 08:18:54;;;;;;;8.23;6.50;;;;;;;;;;5032172;28;20265;-84
2022/11/12 08:21:39;;;;;;;10.43;7.30;;;;;;;;;;5017723;28;20269;-86
2022/11/12 08:24:24;;;;;;;13.60;6.50;;;;;;;;;;5029261;28;20376;-85
2022/11/12 08:27:09;;;;;;;9.57;6.77;;;;;;;;;;5028467;28;20210;-86
2022/11/12 08:29:54;;;;;;;8.03;6.77;;;;;;;;;;5030745;28;20201;-85
2022/11/12 08:32:39;;;;;;;7.50;6.70;;;;;;;;;;5045324;28;20193;-86
2022/11/12 08:35:24;;;;;;;9.77;6.23;;;;;;;;;;5025048;28;20721;-86
2022/11/12 08:38:09;;;;;;;7.90;6.40;;;;;;;;;;5024045;28;20178;-85
2022/11/12 08:40:54;;;;;;;14.97;7.07;;;;;;;;;;5045619;28;20190;-87
2022/11/12 08:43:39;;;;;;;12.33;8.23;;;;;;;;;;5031643;28;20378;-86
2022/11/12 08:46:25;;;;;;;16.17;8.50;;;;;;;;;;5030936;28;20236;-85
2022/11/12 08:49:10;;;;;;;13.13;7.80;;;;;;;;;;5030989;28;20192;-85
2022/11/12 08:51:56;;;;;;;26.50;7.40;;;;;;;;;;5032109;28;20179;-86
2022/11/12 08:54:41;;;;;;;7.90;6.50;;;;;;;;;;5028468;28;20178;-85
2022/11/12 08:57:26;;;;;;;11.03;6.43;;;;;;;;;;5031413;28;20256;-87
2022/11/12 09:00:11;;;;;;;14.60;6.37;;;;;;;;;;5037759;28;20193;-86
2022/11/12 09:02:59;;;;;;;12.20;6.43;;;;;;;;;;5029150;28;20194;-86
2022/11/12 09:05:44;;;;;;;18.77;6.60;;;;;;;;;;5027513;28;20238;-85
2022/11/12 09:08:29;;;;;;;11.03;6.47;;;;;;;;;;5029016;28;20224;-86
2022/11/12 09:11:13;;;;;;;8.03;6.80;;;;;;;;;;5043221;28;20208;-85
2022/11/12 09:13:58;;;;;;;14.63;6.70;;;;;;;;;;5031016;28;20207;-85
2022/11/12 09:16:43;;;;;;;10.57;6.50;;;;;;;;;;5028493;28;20900;-85
2022/11/12 09:19:28;;;;;;;10.40;6.53;;;;;;;;;;5040731;28;20191;-86
2022/11/12 09:22:12;;;;;;;10.37;6.37;;;;;;;;;;5026006;28;20183;-87
2022/11/12 09:24:57;;;;;;;6.77;5.80;;;;;;;;;;5027687;28;20273;-86
2022/11/12 09:27:42;;;;;;;9.77;5.97;;;;;;;;;;5027914;28;20301;-86
2022/11/12 09:30:27;;;;;;;11.43;6.13;;;;;;;;;;5039449;28;20662;-87
2022/11/12 09:33:19;;;;;;;7.17;6.00;;;;;;;;;;5025888;28;20178;-86
2022/11/12 09:36:05;;;;;;;10.90;5.87;;;;;;;;;;5033107;28;20265;-85
2022/11/12 09:38:50;;;;;;;6.67;5.63;;;;;;;;;;5041476;28;20270;-87
2022/11/12 09:41:39;;;;;;;7.37;5.63;;;;;;;;;;5058840;28;20189;-88
2022/11/12 09:44:24;;;;;;;6.90;5.70;;;;;;;;;;5040993;28;20201;-87
2022/11/12 09:47:14;;;;;;;9.63;6.53;;;;;;;;;;5044756;28;20218;-87
2022/11/12 09:50:05;;;;;;;8.43;6.67;;;;;;;;;;5031260;28;20175;-86
2022/11/12 09:52:51;;;;;;;7.93;6.30;;;;;;;;;;5028548;28;20259;-86
2022/11/12 09:55:39;;;;;;;7.53;6.03;;;;;;;;;;5028724;28;20214;-85
2022/11/12 09:58:26;;;;;;;7.60;6.57;;;;;;;;;;5039691;28;20290;-86
2022/11/12 10:01:10;;;;;;;8.00;6.40;;;;;;;;;;5027755;28;20190;-85
2022/11/12 10:04:07;;;;;;;10.43;6.57;;;;;;;;;;5033350;28;20682;-85
2022/11/12 10:07:01;;;;;;;9.33;7.00;;;;;;;;;;5027442;28;20257;-86
2022/11/12 10:09:55;;;;;;;7.20;6.20;;;;;;;;;;5032154;28;20198;-86
2022/11/12 10:12:42;;;;;;;10.43;8.20;;;;;;;;;;5034371;28;20217;-85
2022/11/12 10:18:59;;;;;;;13.07;9.30;;;;;;;;;;5030554;28;20194;-87
2022/11/12 10:21:44;;;;;;;11.80;8.27;;;;;;;;;;5047296;28;20182;-85
2022/11/12 10:24:33;;;;;;;11.30;8.77;;;;;;;;;;5030593;28;20186;-86
2022/11/12 10:27:24;;;;;;;19.20;8.73;;;;;;;;;;5026672;28;20245;-85
2022/11/12 10:30:17;;;;;;;14.83;7.70;;;;;;;;;;5027689;28;20178;-85
2022/11/12 10:33:02;;;;;;;11.70;8.07;;;;;;;;;;5037999;28;20186;-88
2022/11/12 10:35:47;;;;;;;10.93;8.10;;;;;;;;;;5026713;28;20672;-82
2022/11/12 10:38:34;;;;;;;8.23;7.30;;;;;;;;;;5027307;28;20190;-80
2022/11/12 10:41:32;;;;;;;8.97;7.70;;;;;;;;;;5030127;28;20182;-82
2022/11/12 10:44:25;;;;;;;11.90;8.47;;;;;;;;;;5030015;28;20197;-81
2022/11/12 10:47:22;;;;;;;9.93;7.97;;;;;;;;;;5043645;28;20226;-82
2022/11/12 10:50:25;;;;;;;10.10;7.93;;;;;;;;;;5028649;28;20245;-84
2022/11/12 10:53:11;;;;;;;9.47;7.40;;;;;;;;;;5027416;28;20208;-87
2022/11/12 10:56:00;;;;;;;9.33;7.67;;;;;;;;;;5039782;28;20206;-87
2022/11/12 10:59:07;;;;;;;8.90;7.57;;;;;;;;;;5029884;28;20678;-87
2022/11/12 11:01:57;;;;;;;9.07;8.00;;;;;;;;;;5041746;28;20182;-87
2022/11/12 11:04:42;;;;;;;7.63;6.77;;;;;;;;;;5031202;28;20562;-87
2022/11/12 11:07:26;;;;;;;9.20;7.87;;;;;;;;;;5030630;28;20220;-88
2022/11/12 11:10:23;;;;;;;10.60;8.83;;;;;;;;;;5030803;28;20683;-87
2022/11/12 11:13:27;;;;;;;10.40;8.80;;;;;;;;;;5038029;28;20282;-87
2022/11/12 11:16:23;;;;;;;10.43;9.03;;;;;;;;;;5018262;28;20966;-87
2022/11/12 11:19:08;;;;;;;12.83;9.53;;;;;;;;;;5031001;28;20213;-87
2022/11/12 11:21:59;;;;;;;13.87;9.60;;;;;;;;;;5031618;28;20225;-87
2022/11/12 11:25:04;;;;;;;9.33;8.27;;;;;;;;;;5031491;28;20189;-87
2022/11/12 11:28:10;;;;;;;10.07;8.53;;;;;;;;;;5031433;28;20206;-86
2022/11/12 11:30:58;;;;;;;13.93;9.50;;;;;;;;;;5026129;28;20190;-87
2022/11/12 11:33:55;;;;;;;12.20;9.23;;;;;;;;;;5030718;28;20197;-87
2022/11/12 11:36:49;;;;;;;19.17;9.70;;;;;;;;;;5030450;28;20755;-87
2022/11/12 11:39:42;;;;;;;10.67;8.83;;;;;;;;;;5019047;28;20175;-87
2022/11/12 11:42:36;;;;;;;15.23;10.10;;;;;;;;;;5029995;28;20666;-87
2022/11/12 11:45:33;;;;;;;11.70;9.13;;;;;;;;;;5029840;28;20220;-86
2022/11/12 11:48:30;;;;;;;10.73;9.27;;;;;;;;;;5030219;28;20241;-87
2022/11/12 11:51:24;;;;;;;13.57;9.43;;;;;;;;;;5030701;28;20189;-87
2022/11/12 11:54:29;;;;;;;13.17;9.53;;;;;;;;;;5029880;28;20193;-87
2022/11/12 11:57:16;;;;;;;11.07;9.60;;;;;;;;;;5017570;28;20194;-87
2022/11/12 12:00:10;;;;;;;11.10;9.40;;;;;;;;;;5030345;28;20170;-87
2022/11/12 12:03:11;;;;;;;11.53;9.33;;;;;;;;;;5028824;28;20198;-87
2022/11/12 12:06:03;;;;;;;12.60;10.30;;;;;;;;;;5029110;28;20213;-87
2022/11/12 12:09:00;;;;;;;12.77;10.60;;;;;;;;;;5045301;28;20807;-88
2022/11/12 12:11:45;;;;;;;14.57;10.97;;;;;;;;;;5031133;28;20185;-86
2022/11/12 12:14:32;;;;;;;11.37;9.47;;;;;;;;;;5027898;28;20298;-87
2022/11/12 12:17:38;;;;;;;12.70;9.63;;;;;;;;;;5026845;28;20168;-87
2022/11/12 12:20:29;;;;;;;12.13;10.80;;;;;;;;;;5010717;28;20178;-89
2022/11/12 12:23:18;;;;;;;13.30;10.23;;;;;;;;;;5016853;28;20174;-87
2022/11/12 12:26:06;;;;;;;14.30;11.53;;;;;;;;;;5015041;28;20213;-82
2022/11/12 12:28:51;;;;;;;16.20;11.63;;;;;;;;;;5031701;28;20198;-85
2022/11/12 12:31:39;;;;;;;14.10;11.90;;;;;;;;;;5014765;28;20281;-86
2022/11/12 12:34:28;;;;;;;12.40;10.93;;;;;;;;;;5022434;28;20851;-84
2022/11/12 12:37:22;;;;;;;13.30;10.80;;;;;;;;;;5036198;28;20178;-87
2022/11/12 12:40:17;;;;;;;14.27;11.23;;;;;;;;;;5017281;28;20186;-86
2022/11/12 12:43:02;;;;;;;11.67;10.13;;;;;;;;;;5017011;28;20277;-89
2022/11/12 12:45:47;;;;;;;13.40;12.00;;;;;;;;;;5033288;28;20218;-79
2022/11/12 12:48:36;;;;;;;12.47;10.87;;;;;;;;;;5023281;28;20296;-86
2022/11/12 12:51:21;;;;;;;12.63;10.23;;;;;;;;;;5023967;28;20187;-81
2022/11/12 12:54:26;;;;;;;12.83;10.73;;;;;;;;;;5027794;28;20676;-76
2022/11/12 12:57:29;;;;;;;12.27;10.97;;;;;;;;;;5009872;28;20210;-83
2022/11/12 13:00:28;;;;;;;14.23;11.23;;;;;;;;;;5026677;28;20268;-82
2022/11/12 13:03:13;;;;;;;12.07;10.77;;;;;;;;;;5028967;28;20191;-82
2022/11/12 13:06:08;;;;;;;14.40;11.43;;;;;;;;;;5013976;28;20309;-83
2022/11/12 13:08:52;;;;;;;13.10;11.30;;;;;;;;;;5028014;28;20187;-82
2022/11/12 13:14:44;;;;;;;14.47;11.30;;;;;;;;;;5024311;28;20182;-82
2022/11/12 13:17:43;;;;;;;14.73;12.33;;;;;;;;;;5041640;28;20254;-87
2022/11/12 13:20:33;;;;;;;14.03;11.43;;;;;;;;;;5028342;28;20171;-84
2022/11/12 13:24:05;;;;;;;14.60;12.07;;;;;;;;;;5015369;28;20182;-80
2022/11/12 13:26:50;;;;;;;16.30;13.27;;;;;;;;;;5008089;28;20305;-87
2022/11/12 13:29:35;;;;;;;15.57;12.33;;;;;;;;;;5029313;28;20174;-85
2022/11/12 13:32:35;;;;;;;17.37;13.13;;;;;;;;;;5025892;28;20320;-79
2022/11/12 13:35:23;;;;;;;14.70;12.13;;;;;;;;;;5026776;28;20197;-80
2022/11/12 13:38:07;;;;;;;17.17;12.90;;;;;;;;;;5024327;28;20186;-78
2022/11/12 13:41:03;;;;;;;16.60;12.93;;;;;;;;;;5029552;28;20208;-78
2022/11/12 13:43:48;;;;;;;20.47;14.67;;;;;;;;;;5008378;28;20794;-78
2022/11/12 13:46:34;;;;;;;19.13;15.17;;;;;;;;;;5035808;28;20689;-78
2022/11/12 13:49:19;;;;;;;17.60;13.97;;;;;;;;;;5036761;28;20224;-78
2022/11/12 13:52:05;;;;;;;17.60;14.43;;;;;;;;;;5020725;28;20754;-79
2022/11/12 13:55:01;;;;;;;16.23;13.30;;;;;;;;;;5025184;28;20179;-78
2022/11/12 13:57:49;;;;;;;16.20;13.00;;;;;;;;;;5040532;28;20252;-78
2022/11/12 14:00:34;;;;;;;14.50;12.17;;;;;;;;;;5040438;28;20166;-78
2022/11/12 14:03:19;;;;;;;14.40;12.33;;;;;;;;;;5026363;28;20604;-77
2022/11/12 14:06:07;;;;;;;16.33;13.07;;;;;;;;;;5016450;28;20209;-77
2022/11/12 14:08:59;;;;;;;65.97;33.37;;;;;;;;;;5028203;28;20891;-78
2022/11/12 14:12:06;;;;;;;41.87;25.57;;;;;;;;;;5031210;28;20171;-77
2022/11/12 14:15:00;;;;;;;25.47;16.50;;;;;;;;;;5026458;28;20719;-77
2022/11/12 14:17:57;;;;;;;17.27;13.20;;;;;;;;;;5029407;28;20555;-77
2022/11/12 14:20:44;;;;;;;16.07;12.60;;;;;;;;;;5030859;28;20591;-77
2022/11/12 14:23:29;;;;;;;13.17;11.27;;;;;;;;;;5030933;28;20190;-78
2022/11/12 14:26:33;;;;;;;15.37;11.70;;;;;;;;;;5039988;28;20603;-78
2022/11/12 14:29:18;;;;;;;13.83;11.90;;;;;;;;;;5011349;28;20635;-77
2022/11/12 14:32:03;;;;;;;16.20;13.13;;;;;;;;;;5009587;28;20190;-77
2022/11/12 14:34:48;;;;;;;13.70;11.50;;;;;;;;;;5010697;28;20178;-77
2022/11/12 14:37:36;;;;;;;14.97;12.13;;;;;;;;;;5010514;28;20275;-77
2022/11/12 14:40:22;;;;;;;14.30;11.97;;;;;;;;;;5010948;28;20172;-77
2022/11/12 14:43:17;;;;;;;14.07;12.07;;;;;;;;;;5026945;28;20267;-77
2022/11/12 14:46:03;;;;;;;13.87;11.87;;;;;;;;;;5030080;28;20253;-76
2022/11/12 14:48:52;;;;;;;13.47;11.30;;;;;;;;;;5019828;28;20619;-75
2022/11/12 14:51:43;;;;;;;12.40;10.20;;;;;;;;;;5024299;28;20183;-74
2022/11/12 14:54:31;;;;;;;14.57;11.57;;;;;;;;;;5030159;28;20206;-74
2022/11/12 14:57:19;;;;;;;14.07;11.30;;;;;;;;;;5029311;28;20674;-74
2022/11/12 15:00:17;;;;;;;12.13;10.53;;;;;;;;;;5028987;28;20641;-74
2022/11/12 15:03:03;;;;;;;16.10;11.33;;;;;;;;;;5028743;28;20238;-74
2022/11/12 15:05:56;;;;;;;15.83;12.63;;;;;;;;;;5039812;28;20276;-75
2022/11/12 15:08:41;;;;;;;16.03;13.47;;;;;;;;;;5029933;28;20202;-74
2022/11/12 15:11:30;;;;;;;14.50;11.53;;;;;;;;;;5029769;28;20246;-75
2022/11/12 15:14:23;;;;;;;13.77;11.50;;;;;;;;;;5030229;28;20201;-75
2022/11/12 15:17:20;;;;;;;14.00;11.43;;;;;;;;;;5029587;28;20214;-74
2022/11/12 15:20:12;;;;;;;15.60;12.20;;;;;;;;;;5029002;28;20644;-74
2022/11/12 15:22:57;;;;;;;13.63;11.37;;;;;;;;;;5011707;28;20183;-74
2022/11/12 15:25:42;;;;;;;16.53;13.73;;;;;;;;;;5009551;28;20344;-74
2022/11/12 15:28:27;;;;;;;17.33;13.87;;;;;;;;;;5009787;28;20758;-74
2022/11/12 15:31:19;;;;;;;16.13;13.60;;;;;;;;;;5009734;28;20693;-75
2022/11/12 15:34:22;;;;;;;14.93;11.97;;;;;;;;;;5009729;28;20580;-75
2022/11/12 15:37:08;;;;;;;23.03;13.77;;;;;;;;;;5020613;28;20202;-75
2022/11/12 15:39:53;;;;;;;22.10;13.07;;;;;;;;;;5029703;28;20169;-74
2022/11/12 15:42:41;;;;;;;17.17;13.13;;;;;;;;;;5029517;28;20209;-74
2022/11/12 15:45:25;;;;;;;14.53;11.43;;;;;;;;;;5029589;28;20271;-74
2022/11/12 15:48:11;;;;;;;15.30;11.90;;;;;;;;;;5029476;28;20260;-74
2022/11/12 15:50:56;;;;;;;17.48;13.57;;;;;;;;;;5029063;28;20413;-75
2022/11/12 15:53:41;;;;;;;19.37;13.27;;;;;;;;;;5028473;28;20214;-74
2022/11/12 15:56:26;;;;;;;16.10;11.67;;;;;;;;;;5029823;28;20204;-75
2022/11/12 15:59:14;;;;;;;16.60;14.50;;;;;;;;;;5038421;28;20414;-75
2022/11/12 16:01:59;;;;;;;16.73;13.13;;;;;;;;;;5025803;28;20193;-75
2022/11/12 16:04:43;;;;;;;18.88;16.30;;;;;;;;;;5018764;28;20483;-77
2022/11/12 16:07:28;;;;;;;20.47;14.10;;;;;;;;;;5028250;28;20198;-74
2022/11/12 16:10:15;;;;;;;19.20;14.03;;;;;;;;;;5030427;28;20155;-75
2022/11/12 16:13:01;;;;;;;23.83;14.43;;;;;;;;;;5029350;28;20178;-75
2022/11/12 16:15:49;;;;;;;18.13;14.50;;;;;;;;;;5031625;28;20494;-74
2022/11/12 16:18:33;;;;;;;15.40;12.60;;;;;;;;;;5018947;28;20175;-75
2022/11/12 16:21:18;;;;;;;16.60;12.63;;;;;;;;;;5017246;28;20190;-75
2022/11/12 16:24:03;;;;;;;18.73;14.37;;;;;;;;;;5029142;28;20660;-75
2022/11/12 16:26:48;;;;;;;17.30;13.90;;;;;;;;;;5026982;28;20218;-77
2022/11/12 16:29:33;;;;;;;22.60;13.63;;;;;;;;;;5009016;28;20179;-75
2022/11/12 16:32:19;;;;;;;16.27;12.73;;;;;;;;;;5030495;28;20897;-76
2022/11/12 16:35:04;;;;;;;21.57;15.97;;;;;;;;;;5028485;28;20181;-75
2022/11/12 16:37:50;;;;;;;21.50;15.43;;;;;;;;;;5027812;28;20212;-76
2022/11/12 16:40:35;;;;;;;21.00;13.73;;;;;;;;;;5025330;28;20187;-79
2022/11/12 16:43:19;;;;;;;18.90;13.40;;;;;;;;;;5028387;28;20241;-75
2022/11/12 16:46:18;;;;;;;21.60;16.33;;;;;;;;;;5026543;28;20214;-75
2022/11/12 16:49:03;;;;;;;22.87;15.63;;;;;;;;;;5022150;28;20183;-75
2022/11/12 16:51:47;;;;;;;19.53;15.33;;;;;;;;;;5016672;28;20282;-75
2022/11/12 16:54:33;;;;;;;39.40;15.57;;;;;;;;;;5012559;28;20167;-75
2022/11/12 16:57:18;;;;;;;17.37;12.70;;;;;;;;;;5029816;28;20181;-76
2022/11/12 17:00:04;;;;;;;22.33;16.40;;;;;;;;;;5024277;28;20889;-75
2022/11/12 17:02:49;;;;;;;20.27;15.67;;;;;;;;;;5016182;28;20353;-76